sensor_id;sensor_type;location;lat;lon;timestamp;P1;durP1;ratioP1;P2;durP2;ratioP2
6852;SDS011;3465;42.144;24.722;2023-02-19T00:03:33;9.87;;;4.87;;
6852;SDS011;3465;42.144;24.722;2023-02-19T00:06:03;9.70;;;4.70;;
6852;SDS011;3465;42.144;24.722;2023-02-19T00:08:33;9.90;;;4.53;;
6852;SDS011;3465;42.144;24.722;2023-02-19T00:11:00;8.93;;;5.17;;
6852;SDS011;3465;42.144;24.722;2023-02-19T00:13:29;11.17;;;5.90;;
6852;SDS011;3465;42.144;24.722;2023-02-19T00:15:55;11.53;;;5.87;;
6852;SDS011;3465;42.144;24.722;2023-02-19T00:18:20;12.23;;;6.17;;
6852;SDS011;3465;42.144;24.722;2023-02-19T00:20:46;17.43;;;7.07;;
6852;SDS011;3465;42.144;24.722;2023-02-19T00:23:11;14.33;;;7.70;;
6852;SDS011;3465;42.144;24.722;2023-02-19T00:25:37;16.97;;;7.47;;
6852;SDS011;3465;42.144;24.722;2023-02-19T00:28:02;14.10;;;8.00;;
6852;SDS011;3465;42.144;24.722;2023-02-19T00:30:28;20.43;;;8.73;;
6852;SDS011;3465;42.144;24.722;2023-02-19T00:32:53;16.20;;;8.40;;
6852;SDS011;3465;42.144;24.722;2023-02-19T00:35:19;18.27;;;9.10;;
6852;SDS011;3465;42.144;24.722;2023-02-19T00:37:45;20.57;;;8.80;;
6852;SDS011;3465;42.144;24.722;2023-02-19T00:40:10;19.03;;;8.67;;
6852;SDS011;3465;42.144;24.722;2023-02-19T00:42:36;17.97;;;9.20;;
6852;SDS011;3465;42.144;24.722;2023-02-19T00:45:01;18.57;;;8.90;;
6852;SDS011;3465;42.144;24.722;2023-02-19T00:47:26;15.83;;;8.60;;
6852;SDS011;3465;42.144;24.722;2023-02-19T00:49:52;17.80;;;10.27;;
6852;SDS011;3465;42.144;24.722;2023-02-19T00:52:17;21.60;;;10.20;;
6852;SDS011;3465;42.144;24.722;2023-02-19T00:54:42;18.13;;;9.47;;
6852;SDS011;3465;42.144;24.722;2023-02-19T00:57:08;20.80;;;10.97;;
6852;SDS011;3465;42.144;24.722;2023-02-19T00:59:33;19.90;;;10.23;;
6852;SDS011;3465;42.144;24.722;2023-02-19T01:02:00;16.37;;;9.53;;
6852;SDS011;3465;42.144;24.722;2023-02-19T01:04:26;20.90;;;9.73;;
6852;SDS011;3465;42.144;24.722;2023-02-19T01:06:52;20.13;;;9.80;;
6852;SDS011;3465;42.144;24.722;2023-02-19T01:09:17;16.50;;;9.27;;
6852;SDS011;3465;42.144;24.722;2023-02-19T01:11:42;18.40;;;9.63;;
6852;SDS011;3465;42.144;24.722;2023-02-19T01:14:08;17.50;;;9.50;;
6852;SDS011;3465;42.144;24.722;2023-02-19T01:16:34;18.07;;;9.10;;
6852;SDS011;3465;42.144;24.722;2023-02-19T01:19:00;16.90;;;8.93;;
6852;SDS011;3465;42.144;24.722;2023-02-19T01:21:25;18.23;;;9.43;;
6852;SDS011;3465;42.144;24.722;2023-02-19T01:23:52;17.07;;;9.07;;
6852;SDS011;3465;42.144;24.722;2023-02-19T01:26:19;16.57;;;8.63;;
6852;SDS011;3465;42.144;24.722;2023-02-19T01:28:46;15.90;;;8.30;;
6852;SDS011;3465;42.144;24.722;2023-02-19T01:31:13;20.20;;;8.90;;
6852;SDS011;3465;42.144;24.722;2023-02-19T01:33:43;15.00;;;8.33;;
6852;SDS011;3465;42.144;24.722;2023-02-19T01:36:10;18.13;;;9.23;;
6852;SDS011;3465;42.144;24.722;2023-02-19T01:38:35;16.57;;;8.50;;
6852;SDS011;3465;42.144;24.722;2023-02-19T01:41:02;18.33;;;8.33;;
6852;SDS011;3465;42.144;24.722;2023-02-19T01:43:31;16.33;;;8.80;;
6852;SDS011;3465;42.144;24.722;2023-02-19T01:45:57;14.60;;;8.37;;
6852;SDS011;3465;42.144;24.722;2023-02-19T01:48:24;14.00;;;8.20;;
6852;SDS011;3465;42.144;24.722;2023-02-19T01:50:58;16.80;;;9.13;;
6852;SDS011;3465;42.144;24.722;2023-02-19T01:53:32;14.97;;;8.73;;
6852;SDS011;3465;42.144;24.722;2023-02-19T01:56:00;18.43;;;8.83;;
6852;SDS011;3465;42.144;24.722;2023-02-19T01:58:27;18.87;;;8.30;;
6852;SDS011;3465;42.144;24.722;2023-02-19T02:00:55;16.33;;;8.33;;
6852;SDS011;3465;42.144;24.722;2023-02-19T02:03:21;16.33;;;7.53;;
6852;SDS011;3465;42.144;24.722;2023-02-19T02:08:32;16.53;;;8.07;;
6852;SDS011;3465;42.144;24.722;2023-02-19T02:11:16;14.77;;;7.73;;
6852;SDS011;3465;42.144;24.722;2023-02-19T02:13:44;16.97;;;7.60;;
6852;SDS011;3465;42.144;24.722;2023-02-19T02:16:21;16.90;;;8.47;;
6852;SDS011;3465;42.144;24.722;2023-02-19T02:18:50;17.73;;;8.63;;
6852;SDS011;3465;42.144;24.722;2023-02-19T02:30:00;13.70;;;8.27;;
6852;SDS011;3465;42.144;24.722;2023-02-19T02:32:48;12.90;;;7.67;;
6852;SDS011;3465;42.144;24.722;2023-02-19T02:35:21;15.83;;;7.60;;
6852;SDS011;3465;42.144;24.722;2023-02-19T02:37:49;14.53;;;8.30;;
6852;SDS011;3465;42.144;24.722;2023-02-19T02:40:19;16.37;;;7.83;;
6852;SDS011;3465;42.144;24.722;2023-02-19T02:42:44;13.70;;;7.43;;
6852;SDS011;3465;42.144;24.722;2023-02-19T02:50:41;11.93;;;6.30;;
6852;SDS011;3465;42.144;24.722;2023-02-19T02:53:15;12.13;;;6.13;;
6852;SDS011;3465;42.144;24.722;2023-02-19T02:56:05;11.07;;;5.73;;
6852;SDS011;3465;42.144;24.722;2023-02-19T02:58:32;9.00;;;5.20;;
6852;SDS011;3465;42.144;24.722;2023-02-19T03:01:01;13.07;;;6.20;;
6852;SDS011;3465;42.144;24.722;2023-02-19T03:03:51;11.27;;;5.80;;
6852;SDS011;3465;42.144;24.722;2023-02-19T03:06:21;11.83;;;5.77;;
6852;SDS011;3465;42.144;24.722;2023-02-19T03:09:09;10.83;;;6.57;;
6852;SDS011;3465;42.144;24.722;2023-02-19T03:11:39;12.27;;;6.03;;
6852;SDS011;3465;42.144;24.722;2023-02-19T03:14:34;12.03;;;5.97;;
6852;SDS011;3465;42.144;24.722;2023-02-19T03:17:32;13.30;;;5.73;;
6852;SDS011;3465;42.144;24.722;2023-02-19T03:20:20;11.40;;;5.97;;
6852;SDS011;3465;42.144;24.722;2023-02-19T03:22:47;10.23;;;6.03;;
6852;SDS011;3465;42.144;24.722;2023-02-19T03:25:17;10.93;;;5.73;;
6852;SDS011;3465;42.144;24.722;2023-02-19T03:28:04;11.90;;;5.40;;
6852;SDS011;3465;42.144;24.722;2023-02-19T03:30:33;8.47;;;5.03;;
6852;SDS011;3465;42.144;24.722;2023-02-19T03:33:03;14.83;;;6.23;;
6852;SDS011;3465;42.144;24.722;2023-02-19T03:35:32;12.97;;;5.47;;
6852;SDS011;3465;42.144;24.722;2023-02-19T03:38:10;10.90;;;5.10;;
6852;SDS011;3465;42.144;24.722;2023-02-19T03:40:53;9.30;;;4.73;;
6852;SDS011;3465;42.144;24.722;2023-02-19T03:43:34;8.47;;;4.60;;
6852;SDS011;3465;42.144;24.722;2023-02-19T03:46:39;8.37;;;4.83;;
6852;SDS011;3465;42.144;24.722;2023-02-19T03:48:58;11.10;;;4.80;;
6852;SDS011;3465;42.144;24.722;2023-02-19T03:51:33;10.00;;;4.53;;
6852;SDS011;3465;42.144;24.722;2023-02-19T03:54:12;8.10;;;4.20;;
6852;SDS011;3465;42.144;24.722;2023-02-19T03:56:51;8.77;;;4.07;;
6852;SDS011;3465;42.144;24.722;2023-02-19T03:59:26;6.27;;;3.77;;
6852;SDS011;3465;42.144;24.722;2023-02-19T04:02:03;7.40;;;3.67;;
6852;SDS011;3465;42.144;24.722;2023-02-19T04:04:38;7.03;;;3.80;;
6852;SDS011;3465;42.144;24.722;2023-02-19T04:07:09;7.23;;;3.60;;
6852;SDS011;3465;42.144;24.722;2023-02-19T04:09:36;5.27;;;3.33;;
6852;SDS011;3465;42.144;24.722;2023-02-19T04:12:04;4.50;;;3.10;;
6852;SDS011;3465;42.144;24.722;2023-02-19T04:14:32;9.43;;;3.67;;
6852;SDS011;3465;42.144;24.722;2023-02-19T04:17:05;7.47;;;3.40;;
6852;SDS011;3465;42.144;24.722;2023-02-19T04:19:39;5.70;;;2.93;;
6852;SDS011;3465;42.144;24.722;2023-02-19T04:22:07;7.83;;;3.13;;
6852;SDS011;3465;42.144;24.722;2023-02-19T04:24:38;5.97;;;3.30;;
6852;SDS011;3465;42.144;24.722;2023-02-19T04:27:07;5.37;;;3.40;;
6852;SDS011;3465;42.144;24.722;2023-02-19T04:29:33;4.53;;;2.90;;
6852;SDS011;3465;42.144;24.722;2023-02-19T04:31:59;5.27;;;3.20;;
6852;SDS011;3465;42.144;24.722;2023-02-19T04:34:24;4.33;;;2.80;;
6852;SDS011;3465;42.144;24.722;2023-02-19T04:36:50;5.63;;;3.00;;
6852;SDS011;3465;42.144;24.722;2023-02-19T04:39:15;6.27;;;3.17;;
6852;SDS011;3465;42.144;24.722;2023-02-19T04:41:41;8.20;;;3.20;;
6852;SDS011;3465;42.144;24.722;2023-02-19T04:44:06;7.57;;;3.27;;
6852;SDS011;3465;42.144;24.722;2023-02-19T04:46:31;7.43;;;3.50;;
6852;SDS011;3465;42.144;24.722;2023-02-19T04:48:57;11.13;;;3.70;;
6852;SDS011;3465;42.144;24.722;2023-02-19T04:51:22;6.90;;;3.47;;
6852;SDS011;3465;42.144;24.722;2023-02-19T04:53:48;7.23;;;3.43;;
6852;SDS011;3465;42.144;24.722;2023-02-19T04:56:14;10.13;;;3.20;;
6852;SDS011;3465;42.144;24.722;2023-02-19T04:58:41;6.63;;;2.97;;
6852;SDS011;3465;42.144;24.722;2023-02-19T05:01:08;4.87;;;2.87;;
6852;SDS011;3465;42.144;24.722;2023-02-19T05:03:34;6.07;;;2.97;;
6852;SDS011;3465;42.144;24.722;2023-02-19T05:06:03;6.57;;;3.10;;
6852;SDS011;3465;42.144;24.722;2023-02-19T05:08:30;6.37;;;2.90;;
6852;SDS011;3465;42.144;24.722;2023-02-19T05:10:58;4.93;;;2.80;;
6852;SDS011;3465;42.144;24.722;2023-02-19T05:13:25;2.77;;;2.23;;
6852;SDS011;3465;42.144;24.722;2023-02-19T05:15:54;7.47;;;2.77;;
6852;SDS011;3465;42.144;24.722;2023-02-19T05:18:21;6.40;;;2.83;;
6852;SDS011;3465;42.144;24.722;2023-02-19T05:20:47;4.47;;;2.63;;
6852;SDS011;3465;42.144;24.722;2023-02-19T05:23:12;4.60;;;2.50;;
6852;SDS011;3465;42.144;24.722;2023-02-19T05:25:37;3.80;;;2.70;;
6852;SDS011;3465;42.144;24.722;2023-02-19T05:28:03;4.27;;;2.50;;
6852;SDS011;3465;42.144;24.722;2023-02-19T05:30:47;4.93;;;3.10;;
6852;SDS011;3465;42.144;24.722;2023-02-19T05:33:14;3.50;;;2.60;;
6852;SDS011;3465;42.144;24.722;2023-02-19T05:35:43;4.20;;;2.93;;
6852;SDS011;3465;42.144;24.722;2023-02-19T05:38:10;4.60;;;2.73;;
6852;SDS011;3465;42.144;24.722;2023-02-19T05:40:37;5.93;;;2.93;;
6852;SDS011;3465;42.144;24.722;2023-02-19T05:43:03;3.97;;;2.60;;
6852;SDS011;3465;42.144;24.722;2023-02-19T05:45:29;3.73;;;2.73;;
6852;SDS011;3465;42.144;24.722;2023-02-19T05:47:54;5.17;;;2.97;;
6852;SDS011;3465;42.144;24.722;2023-02-19T05:50:20;6.13;;;2.80;;
6852;SDS011;3465;42.144;24.722;2023-02-19T05:52:45;5.73;;;3.07;;
6852;SDS011;3465;42.144;24.722;2023-02-19T05:55:11;5.80;;;2.67;;
6852;SDS011;3465;42.144;24.722;2023-02-19T05:57:40;3.77;;;2.70;;
6852;SDS011;3465;42.144;24.722;2023-02-19T06:00:06;4.20;;;2.60;;
6852;SDS011;3465;42.144;24.722;2023-02-19T06:02:37;4.63;;;2.70;;
6852;SDS011;3465;42.144;24.722;2023-02-19T06:05:03;4.73;;;2.80;;
6852;SDS011;3465;42.144;24.722;2023-02-19T06:07:29;5.03;;;2.50;;
6852;SDS011;3465;42.144;24.722;2023-02-19T06:09:55;5.23;;;3.00;;
6852;SDS011;3465;42.144;24.722;2023-02-19T06:12:21;8.50;;;2.70;;
6852;SDS011;3465;42.144;24.722;2023-02-19T06:14:46;3.60;;;2.63;;
6852;SDS011;3465;42.144;24.722;2023-02-19T06:17:12;3.90;;;2.33;;
6852;SDS011;3465;42.144;24.722;2023-02-19T06:19:37;3.97;;;2.47;;
6852;SDS011;3465;42.144;24.722;2023-02-19T06:22:03;4.47;;;2.20;;
6852;SDS011;3465;42.144;24.722;2023-02-19T06:24:28;6.70;;;2.70;;
6852;SDS011;3465;42.144;24.722;2023-02-19T06:26:54;5.67;;;2.67;;
6852;SDS011;3465;42.144;24.722;2023-02-19T06:29:19;5.17;;;2.77;;
6852;SDS011;3465;42.144;24.722;2023-02-19T06:31:45;5.40;;;2.77;;
6852;SDS011;3465;42.144;24.722;2023-02-19T06:34:10;7.57;;;3.10;;
6852;SDS011;3465;42.144;24.722;2023-02-19T06:36:36;4.67;;;2.87;;
6852;SDS011;3465;42.144;24.722;2023-02-19T06:39:02;6.47;;;3.57;;
6852;SDS011;3465;42.144;24.722;2023-02-19T06:41:28;5.17;;;3.30;;
6852;SDS011;3465;42.144;24.722;2023-02-19T06:43:55;5.90;;;3.40;;
6852;SDS011;3465;42.144;24.722;2023-02-19T06:46:21;7.97;;;3.60;;
6852;SDS011;3465;42.144;24.722;2023-02-19T06:48:46;7.45;;;3.42;;
6852;SDS011;3465;42.144;24.722;2023-02-19T06:51:13;7.63;;;3.40;;
6852;SDS011;3465;42.144;24.722;2023-02-19T06:53:42;5.28;;;3.05;;
6852;SDS011;3465;42.144;24.722;2023-02-19T06:58:46;5.28;;;2.80;;
6852;SDS011;3465;42.144;24.722;2023-02-19T07:01:12;5.75;;;3.53;;
6852;SDS011;3465;42.144;24.722;2023-02-19T07:03:37;4.93;;;3.15;;
6852;SDS011;3465;42.144;24.722;2023-02-19T07:06:03;5.93;;;3.70;;
6852;SDS011;3465;42.144;24.722;2023-02-19T07:08:28;4.97;;;3.30;;
6852;SDS011;3465;42.144;24.722;2023-02-19T07:10:55;6.13;;;3.05;;
6852;SDS011;3465;42.144;24.722;2023-02-19T07:13:22;6.20;;;3.05;;
6852;SDS011;3465;42.144;24.722;2023-02-19T07:15:48;7.60;;;2.90;;
6852;SDS011;3465;42.144;24.722;2023-02-19T07:18:13;4.85;;;3.10;;
6852;SDS011;3465;42.144;24.722;2023-02-19T07:20:38;4.68;;;2.90;;
6852;SDS011;3465;42.144;24.722;2023-02-19T07:23:04;4.30;;;2.88;;
6852;SDS011;3465;42.144;24.722;2023-02-19T07:25:29;5.47;;;2.88;;
6852;SDS011;3465;42.144;24.722;2023-02-19T07:27:55;5.75;;;3.20;;
6852;SDS011;3465;42.144;24.722;2023-02-19T07:30:20;8.48;;;3.50;;
6852;SDS011;3465;42.144;24.722;2023-02-19T07:32:46;7.22;;;2.88;;
6852;SDS011;3465;42.144;24.722;2023-02-19T07:35:11;4.63;;;2.85;;
6852;SDS011;3465;42.144;24.722;2023-02-19T07:37:36;4.57;;;2.97;;
6852;SDS011;3465;42.144;24.722;2023-02-19T07:40:02;6.18;;;3.10;;
6852;SDS011;3465;42.144;24.722;2023-02-19T07:42:28;6.53;;;3.50;;
6852;SDS011;3465;42.144;24.722;2023-02-19T07:44:53;8.45;;;3.90;;
6852;SDS011;3465;42.144;24.722;2023-02-19T07:47:19;6.97;;;3.30;;
6852;SDS011;3465;42.144;24.722;2023-02-19T07:49:44;8.48;;;3.80;;
6852;SDS011;3465;42.144;24.722;2023-02-19T07:52:09;5.43;;;3.30;;
6852;SDS011;3465;42.144;24.722;2023-02-19T07:54:35;4.65;;;3.28;;
6852;SDS011;3465;42.144;24.722;2023-02-19T07:57:00;5.05;;;3.35;;
6852;SDS011;3465;42.144;24.722;2023-02-19T07:59:25;5.47;;;3.10;;
6852;SDS011;3465;42.144;24.722;2023-02-19T08:01:51;9.48;;;3.28;;
6852;SDS011;3465;42.144;24.722;2023-02-19T08:04:35;5.35;;;3.30;;
6852;SDS011;3465;42.144;24.722;2023-02-19T08:07:00;7.47;;;3.70;;
6852;SDS011;3465;42.144;24.722;2023-02-19T08:09:25;5.20;;;3.10;;
6852;SDS011;3465;42.144;24.722;2023-02-19T08:11:51;5.55;;;3.38;;
6852;SDS011;3465;42.144;24.722;2023-02-19T08:14:35;6.25;;;3.72;;
6852;SDS011;3465;42.144;24.722;2023-02-19T08:17:00;5.80;;;3.55;;
6852;SDS011;3465;42.144;24.722;2023-02-19T08:19:27;5.57;;;3.15;;
6852;SDS011;3465;42.144;24.722;2023-02-19T08:21:52;5.38;;;3.50;;
6852;SDS011;3465;42.144;24.722;2023-02-19T08:24:17;6.35;;;3.50;;
6852;SDS011;3465;42.144;24.722;2023-02-19T08:26:43;5.40;;;3.45;;
6852;SDS011;3465;42.144;24.722;2023-02-19T08:29:08;5.28;;;3.60;;
6852;SDS011;3465;42.144;24.722;2023-02-19T08:31:34;10.65;;;3.92;;
6852;SDS011;3465;42.144;24.722;2023-02-19T08:33:59;6.47;;;3.75;;
6852;SDS011;3465;42.144;24.722;2023-02-19T08:36:25;7.57;;;3.75;;
6852;SDS011;3465;42.144;24.722;2023-02-19T08:38:50;7.68;;;4.38;;
6852;SDS011;3465;42.144;24.722;2023-02-19T08:41:16;5.75;;;3.85;;
6852;SDS011;3465;42.144;24.722;2023-02-19T08:43:41;7.70;;;3.90;;
6852;SDS011;3465;42.144;24.722;2023-02-19T08:46:07;6.72;;;3.85;;
6852;SDS011;3465;42.144;24.722;2023-02-19T08:48:37;8.93;;;3.80;;
6852;SDS011;3465;42.144;24.722;2023-02-19T08:51:04;6.38;;;4.00;;
6852;SDS011;3465;42.144;24.722;2023-02-19T08:53:35;7.03;;;3.75;;
6852;SDS011;3465;42.144;24.722;2023-02-19T08:56:19;7.63;;;3.55;;
6852;SDS011;3465;42.144;24.722;2023-02-19T08:58:44;7.38;;;3.75;;
6852;SDS011;3465;42.144;24.722;2023-02-19T09:01:10;9.30;;;3.95;;
6852;SDS011;3465;42.144;24.722;2023-02-19T09:03:38;7.03;;;3.63;;
6852;SDS011;3465;42.144;24.722;2023-02-19T09:06:03;6.28;;;3.63;;
6852;SDS011;3465;42.144;24.722;2023-02-19T09:08:29;11.20;;;4.18;;
6852;SDS011;3465;42.144;24.722;2023-02-19T09:11:01;7.50;;;4.03;;
6852;SDS011;3465;42.144;24.722;2023-02-19T09:13:28;9.05;;;3.90;;
6852;SDS011;3465;42.144;24.722;2023-02-19T09:15:53;10.10;;;3.80;;
6852;SDS011;3465;42.144;24.722;2023-02-19T09:18:21;5.95;;;3.85;;
6852;SDS011;3465;42.144;24.722;2023-02-19T09:20:46;6.85;;;4.25;;
6852;SDS011;3465;42.144;24.722;2023-02-19T09:23:12;5.70;;;3.75;;
6852;SDS011;3465;42.144;24.722;2023-02-19T09:25:37;4.20;;;3.60;;
6852;SDS011;3465;42.144;24.722;2023-02-19T09:28:02;16.05;;;4.20;;
6852;SDS011;3465;42.144;24.722;2023-02-19T09:30:28;5.97;;;4.15;;
6852;SDS011;3465;42.144;24.722;2023-02-19T09:32:53;6.38;;;3.63;;
6852;SDS011;3465;42.144;24.722;2023-02-19T09:35:19;5.95;;;4.18;;
6852;SDS011;3465;42.144;24.722;2023-02-19T09:37:44;7.93;;;4.70;;
6852;SDS011;3465;42.144;24.722;2023-02-19T09:40:09;7.43;;;4.00;;
6852;SDS011;3465;42.144;24.722;2023-02-19T09:42:35;9.60;;;3.88;;
6852;SDS011;3465;42.144;24.722;2023-02-19T09:45:06;4.93;;;3.10;;
6852;SDS011;3465;42.144;24.722;2023-02-19T09:47:31;5.32;;;3.28;;
6852;SDS011;3465;42.144;24.722;2023-02-19T09:50:00;6.63;;;3.38;;
6852;SDS011;3465;42.144;24.722;2023-02-19T09:55:02;5.60;;;3.33;;
6852;SDS011;3465;42.144;24.722;2023-02-19T09:57:41;6.10;;;3.22;;
6852;SDS011;3465;42.144;24.722;2023-02-19T10:02:51;4.93;;;3.47;;
6852;SDS011;3465;42.144;24.722;2023-02-19T10:05:19;5.90;;;3.10;;
6852;SDS011;3465;42.144;24.722;2023-02-19T10:07:48;4.75;;;2.90;;
6852;SDS011;3465;42.144;24.722;2023-02-19T10:12:48;6.32;;;2.80;;
6852;SDS011;3465;42.144;24.722;2023-02-19T10:15:17;8.68;;;4.10;;
6852;SDS011;3465;42.144;24.722;2023-02-19T10:17:52;12.13;;;6.05;;
6852;SDS011;3465;42.144;24.722;2023-02-19T10:20:19;7.32;;;3.60;;
6852;SDS011;3465;42.144;24.722;2023-02-19T10:22:48;10.30;;;5.85;;
6852;SDS011;3465;42.144;24.722;2023-02-19T10:25:21;8.07;;;3.28;;
6852;SDS011;3465;42.144;24.722;2023-02-19T10:27:46;3.72;;;2.75;;
6852;SDS011;3465;42.144;24.722;2023-02-19T10:30:17;4.88;;;2.92;;
6852;SDS011;3465;42.144;24.722;2023-02-19T10:32:56;4.63;;;3.08;;
6852;SDS011;3465;42.144;24.722;2023-02-19T10:38:14;4.32;;;3.00;;
6852;SDS011;3465;42.144;24.722;2023-02-19T10:40:42;2.92;;;2.55;;
6852;SDS011;3465;42.144;24.722;2023-02-19T10:43:12;6.25;;;2.78;;
6852;SDS011;3465;42.144;24.722;2023-02-19T10:45:55;8.65;;;3.00;;
6852;SDS011;3465;42.144;24.722;2023-02-19T10:48:22;5.70;;;2.63;;
6852;SDS011;3465;42.144;24.722;2023-02-19T10:51:06;9.98;;;3.45;;
6852;SDS011;3465;42.144;24.722;2023-02-19T10:53:38;4.97;;;3.00;;
6852;SDS011;3465;42.144;24.722;2023-02-19T10:56:25;8.18;;;3.08;;
6852;SDS011;3465;42.144;24.722;2023-02-19T10:58:53;5.40;;;3.00;;
6852;SDS011;3465;42.144;24.722;2023-02-19T11:03:45;5.13;;;2.78;;
6852;SDS011;3465;42.144;24.722;2023-02-19T11:06:13;3.92;;;2.90;;
6852;SDS011;3465;42.144;24.722;2023-02-19T11:11:25;4.80;;;2.92;;
6852;SDS011;3465;42.144;24.722;2023-02-19T11:13:58;5.72;;;3.20;;
6852;SDS011;3465;42.144;24.722;2023-02-19T11:16:37;5.20;;;2.83;;
6852;SDS011;3465;42.144;24.722;2023-02-19T11:19:30;9.27;;;3.20;;
6852;SDS011;3465;42.144;24.722;2023-02-19T11:22:02;5.40;;;2.80;;
6852;SDS011;3465;42.144;24.722;2023-02-19T11:25:04;5.32;;;2.83;;
6852;SDS011;3465;42.144;24.722;2023-02-19T11:30:55;6.53;;;2.67;;
6852;SDS011;3465;42.144;24.722;2023-02-19T11:33:53;4.55;;;3.30;;
6852;SDS011;3465;42.144;24.722;2023-02-19T11:36:36;5.90;;;3.00;;
6852;SDS011;3465;42.144;24.722;2023-02-19T11:39:18;6.63;;;3.40;;
6852;SDS011;3465;42.144;24.722;2023-02-19T11:50:02;3.97;;;3.00;;
6852;SDS011;3465;42.144;24.722;2023-02-19T12:01:03;9.05;;;3.35;;
6852;SDS011;3465;42.144;24.722;2023-02-19T12:14:57;4.20;;;3.25;;
6852;SDS011;3465;42.144;24.722;2023-02-19T12:42:37;6.97;;;3.40;;
6852;SDS011;3465;42.144;24.722;2023-02-19T12:51:03;7.18;;;3.67;;
6852;SDS011;3465;42.144;24.722;2023-02-19T12:54:06;4.97;;;3.50;;
6852;SDS011;3465;42.144;24.722;2023-02-19T12:56:35;6.75;;;4.38;;
6852;SDS011;3465;42.144;24.722;2023-02-19T12:59:36;6.13;;;4.20;;
6852;SDS011;3465;42.144;24.722;2023-02-19T13:04:50;6.93;;;4.00;;
6852;SDS011;3465;42.144;24.722;2023-02-19T13:10:13;5.10;;;3.60;;
6852;SDS011;3465;42.144;24.722;2023-02-19T13:13:00;7.10;;;3.63;;
6852;SDS011;3465;42.144;24.722;2023-02-19T13:15:35;6.25;;;4.18;;
6852;SDS011;3465;42.144;24.722;2023-02-19T13:18:06;4.80;;;3.40;;
6852;SDS011;3465;42.144;24.722;2023-02-19T13:20:48;6.30;;;3.80;;
6852;SDS011;3465;42.144;24.722;2023-02-19T13:23:30;5.90;;;3.45;;
6852;SDS011;3465;42.144;24.722;2023-02-19T13:34:42;6.82;;;3.38;;
6852;SDS011;3465;42.144;24.722;2023-02-19T13:37:11;8.05;;;4.32;;
6852;SDS011;3465;42.144;24.722;2023-02-19T13:39:44;5.20;;;3.50;;
6852;SDS011;3465;42.144;24.722;2023-02-19T13:42:18;7.00;;;3.72;;
6852;SDS011;3465;42.144;24.722;2023-02-19T13:44:49;6.93;;;3.40;;
6852;SDS011;3465;42.144;24.722;2023-02-19T13:52:48;6.70;;;3.80;;
6852;SDS011;3465;42.144;24.722;2023-02-19T14:01:01;6.18;;;3.70;;
6852;SDS011;3465;42.144;24.722;2023-02-19T14:06:10;6.72;;;3.97;;
6852;SDS011;3465;42.144;24.722;2023-02-19T14:08:46;5.20;;;3.60;;
6852;SDS011;3465;42.144;24.722;2023-02-19T14:11:12;7.85;;;4.28;;
6852;SDS011;3465;42.144;24.722;2023-02-19T14:19:14;5.45;;;3.75;;
6852;SDS011;3465;42.144;24.722;2023-02-19T14:21:54;6.25;;;3.70;;
6852;SDS011;3465;42.144;24.722;2023-02-19T14:24:20;6.35;;;3.42;;
6852;SDS011;3465;42.144;24.722;2023-02-19T14:26:47;5.70;;;3.58;;
6852;SDS011;3465;42.144;24.722;2023-02-19T14:29:12;6.65;;;3.92;;
6852;SDS011;3465;42.144;24.722;2023-02-19T14:31:42;5.90;;;3.42;;
6852;SDS011;3465;42.144;24.722;2023-02-19T14:34:16;12.13;;;4.60;;
6852;SDS011;3465;42.144;24.722;2023-02-19T14:36:47;7.82;;;3.38;;
6852;SDS011;3465;42.144;24.722;2023-02-19T14:41:52;10.85;;;4.28;;
6852;SDS011;3465;42.144;24.722;2023-02-19T14:44:24;12.38;;;4.05;;
6852;SDS011;3465;42.144;24.722;2023-02-19T14:46:58;8.55;;;4.30;;
6852;SDS011;3465;42.144;24.722;2023-02-19T14:52:02;8.50;;;3.53;;
6852;SDS011;3465;42.144;24.722;2023-02-19T14:57:03;5.38;;;3.35;;
6852;SDS011;3465;42.144;24.722;2023-02-19T14:59:35;5.60;;;3.22;;
6852;SDS011;3465;42.144;24.722;2023-02-19T15:02:02;7.22;;;3.53;;
6852;SDS011;3465;42.144;24.722;2023-02-19T15:04:38;6.00;;;3.50;;
6852;SDS011;3465;42.144;24.722;2023-02-19T15:07:07;8.30;;;4.40;;
6852;SDS011;3465;42.144;24.722;2023-02-19T15:09:36;5.63;;;3.55;;
6852;SDS011;3465;42.144;24.722;2023-02-19T15:12:05;6.95;;;3.85;;
6852;SDS011;3465;42.144;24.722;2023-02-19T15:14:31;5.63;;;3.50;;
6852;SDS011;3465;42.144;24.722;2023-02-19T15:17:01;6.55;;;3.72;;
6852;SDS011;3465;42.144;24.722;2023-02-19T15:19:30;5.95;;;3.80;;
6852;SDS011;3465;42.144;24.722;2023-02-19T15:21:59;7.03;;;4.10;;
6852;SDS011;3465;42.144;24.722;2023-02-19T15:24:25;15.30;;;7.43;;
6852;SDS011;3465;42.144;24.722;2023-02-19T15:26:52;9.93;;;5.30;;
6852;SDS011;3465;42.144;24.722;2023-02-19T15:29:20;7.93;;;4.00;;
6852;SDS011;3465;42.144;24.722;2023-02-19T15:31:48;7.72;;;4.35;;
6852;SDS011;3465;42.144;24.722;2023-02-19T15:34:18;8.00;;;4.22;;
6852;SDS011;3465;42.144;24.722;2023-02-19T15:36:55;8.13;;;4.40;;
6852;SDS011;3465;42.144;24.722;2023-02-19T15:39:24;7.43;;;3.80;;
6852;SDS011;3465;42.144;24.722;2023-02-19T15:41:56;6.40;;;3.95;;
6852;SDS011;3465;42.144;24.722;2023-02-19T15:46:55;4.22;;;3.15;;
6852;SDS011;3465;42.144;24.722;2023-02-19T15:49:29;5.57;;;3.30;;
6852;SDS011;3465;42.144;24.722;2023-02-19T15:52:05;9.30;;;4.50;;
6852;SDS011;3465;42.144;24.722;2023-02-19T15:54:47;18.23;;;5.95;;
6852;SDS011;3465;42.144;24.722;2023-02-19T15:57:19;6.82;;;4.40;;
6852;SDS011;3465;42.144;24.722;2023-02-19T15:59:51;8.98;;;4.13;;
6852;SDS011;3465;42.144;24.722;2023-02-19T16:02:26;6.50;;;3.67;;
6852;SDS011;3465;42.144;24.722;2023-02-19T16:04:51;6.53;;;4.03;;
6852;SDS011;3465;42.144;24.722;2023-02-19T16:08:03;7.57;;;3.95;;
6852;SDS011;3465;42.144;24.722;2023-02-19T16:10:17;8.88;;;4.40;;
6852;SDS011;3465;42.144;24.722;2023-02-19T16:12:59;27.35;;;6.35;;
6852;SDS011;3465;42.144;24.722;2023-02-19T16:15:27;24.65;;;7.05;;
6852;SDS011;3465;42.144;24.722;2023-02-19T16:17:55;16.02;;;5.95;;
6852;SDS011;3465;42.144;24.722;2023-02-19T16:22:51;23.17;;;8.75;;
6852;SDS011;3465;42.144;24.722;2023-02-19T16:25:31;21.15;;;9.95;;
6852;SDS011;3465;42.144;24.722;2023-02-19T16:27:58;26.05;;;8.30;;
6852;SDS011;3465;42.144;24.722;2023-02-19T16:30:30;22.33;;;9.38;;
6852;SDS011;3465;42.144;24.722;2023-02-19T16:35:44;27.63;;;10.48;;
6852;SDS011;3465;42.144;24.722;2023-02-19T16:38:13;22.75;;;8.43;;
6852;SDS011;3465;42.144;24.722;2023-02-19T16:45:39;25.95;;;9.25;;
6852;SDS011;3465;42.144;24.722;2023-02-19T16:48:06;33.13;;;15.10;;
6852;SDS011;3465;42.144;24.722;2023-02-19T16:50:32;30.58;;;11.35;;
6852;SDS011;3465;42.144;24.722;2023-02-19T16:52:58;32.75;;;13.77;;
6852;SDS011;3465;42.144;24.722;2023-02-19T16:55:26;32.70;;;12.02;;
6852;SDS011;3465;42.144;24.722;2023-02-19T16:57:52;30.73;;;14.10;;
6852;SDS011;3465;42.144;24.722;2023-02-19T17:00:19;28.17;;;9.88;;
6852;SDS011;3465;42.144;24.722;2023-02-19T17:02:47;25.30;;;10.70;;
6852;SDS011;3465;42.144;24.722;2023-02-19T17:05:15;24.67;;;9.05;;
6852;SDS011;3465;42.144;24.722;2023-02-19T17:07:41;29.85;;;9.93;;
6852;SDS011;3465;42.144;24.722;2023-02-19T17:10:09;26.20;;;9.00;;
6852;SDS011;3465;42.144;24.722;2023-02-19T17:12:37;17.88;;;9.32;;
6852;SDS011;3465;42.144;24.722;2023-02-19T17:15:02;22.83;;;10.25;;
6852;SDS011;3465;42.144;24.722;2023-02-19T17:17:28;16.48;;;8.02;;
6852;SDS011;3465;42.144;24.722;2023-02-19T17:19:53;16.45;;;7.78;;
6852;SDS011;3465;42.144;24.722;2023-02-19T17:22:20;21.35;;;7.00;;
6852;SDS011;3465;42.144;24.722;2023-02-19T17:24:45;18.90;;;5.90;;
6852;SDS011;3465;42.144;24.722;2023-02-19T17:27:12;16.67;;;6.45;;
6852;SDS011;3465;42.144;24.722;2023-02-19T17:29:38;21.98;;;8.40;;
6852;SDS011;3465;42.144;24.722;2023-02-19T17:32:04;18.83;;;8.70;;
6852;SDS011;3465;42.144;24.722;2023-02-19T17:34:30;20.27;;;7.97;;
6852;SDS011;3465;42.144;24.722;2023-02-19T17:36:55;14.70;;;7.18;;
6852;SDS011;3465;42.144;24.722;2023-02-19T17:39:21;14.77;;;6.82;;
6852;SDS011;3465;42.144;24.722;2023-02-19T17:41:47;13.82;;;6.40;;
6852;SDS011;3465;42.144;24.722;2023-02-19T17:44:16;19.67;;;9.05;;